sensor_id;sensor_type;location;lat;lon;timestamp;pressure;altitude;pressure_sealevel;temperature;humidity
61345;BME280;47216;42.656;23.232;2023-03-20T00:00:06;94211.66;;;5.86;60.78
61345;BME280;47216;42.656;23.232;2023-03-20T00:02:35;94204.72;;;5.80;60.58
61345;BME280;47216;42.656;23.232;2023-03-20T00:05:17;94205.94;;;5.77;60.96
61345;BME280;47216;42.656;23.232;2023-03-20T00:07:46;94201.38;;;5.73;61.14
61345;BME280;47216;42.656;23.232;2023-03-20T00:10:14;94201.94;;;5.81;61.34
61345;BME280;47216;42.656;23.232;2023-03-20T00:12:41;94197.56;;;5.75;60.57
61345;BME280;47216;42.656;23.232;2023-03-20T00:15:22;94196.16;;;5.79;61.08
61345;BME280;47216;42.656;23.232;2023-03-20T00:17:49;94196.00;;;5.74;61.14
61345;BME280;47216;42.656;23.232;2023-03-20T00:20:16;94193.56;;;5.79;61.01
61345;BME280;47216;42.656;23.232;2023-03-20T00:22:43;94194.59;;;5.78;60.59
61345;BME280;47216;42.656;23.232;2023-03-20T00:25:14;94194.44;;;5.73;61.42
61345;BME280;47216;42.656;23.232;2023-03-20T00:27:41;94187.72;;;5.59;60.78
61345;BME280;47216;42.656;23.232;2023-03-20T00:30:33;94189.50;;;5.65;60.91
61345;BME280;47216;42.656;23.232;2023-03-20T00:33:00;94183.56;;;5.58;60.98
61345;BME280;47216;42.656;23.232;2023-03-20T00:35:28;94183.56;;;5.58;61.20
61345;BME280;47216;42.656;23.232;2023-03-20T00:37:56;94180.00;;;5.52;61.38
61345;BME280;47216;42.656;23.232;2023-03-20T00:40:28;94172.03;;;5.54;61.23
61345;BME280;47216;42.656;23.232;2023-03-20T00:42:59;94175.72;;;5.39;61.81
61345;BME280;47216;42.656;23.232;2023-03-20T00:45:27;94181.47;;;5.41;61.67
61345;BME280;47216;42.656;23.232;2023-03-20T00:47:55;94180.84;;;5.46;62.10
61345;BME280;47216;42.656;23.232;2023-03-20T00:50:24;94174.31;;;5.43;62.09
61345;BME280;47216;42.656;23.232;2023-03-20T00:52:52;94177.91;;;5.36;62.42
61345;BME280;47216;42.656;23.232;2023-03-20T00:55:22;94185.22;;;5.45;62.33
61345;BME280;47216;42.656;23.232;2023-03-20T00:57:52;94182.06;;;5.43;62.48
61345;BME280;47216;42.656;23.232;2023-03-20T01:00:35;94183.03;;;5.42;62.10
61345;BME280;47216;42.656;23.232;2023-03-20T01:03:10;94177.88;;;5.42;61.53
61345;BME280;47216;42.656;23.232;2023-03-20T01:05:37;94173.72;;;5.41;61.46
61345;BME280;47216;42.656;23.232;2023-03-20T01:08:08;94169.13;;;5.43;61.08
61345;BME280;47216;42.656;23.232;2023-03-20T01:10:36;94167.13;;;5.45;61.80
61345;BME280;47216;42.656;23.232;2023-03-20T01:13:05;94160.53;;;5.50;61.31
61345;BME280;47216;42.656;23.232;2023-03-20T01:15:39;94164.31;;;5.47;61.77
61345;BME280;47216;42.656;23.232;2023-03-20T01:18:07;94158.34;;;5.46;61.64
61345;BME280;47216;42.656;23.232;2023-03-20T01:20:35;94158.78;;;5.43;61.28
61345;BME280;47216;42.656;23.232;2023-03-20T01:23:03;94160.78;;;5.41;62.05
61345;BME280;47216;42.656;23.232;2023-03-20T01:25:30;94150.47;;;5.35;61.73
61345;BME280;47216;42.656;23.232;2023-03-20T01:27:57;94157.44;;;5.34;61.60
61345;BME280;47216;42.656;23.232;2023-03-20T01:30:26;94155.25;;;5.31;62.04
61345;BME280;47216;42.656;23.232;2023-03-20T01:32:54;94149.47;;;5.29;62.35
61345;BME280;47216;42.656;23.232;2023-03-20T01:35:23;94151.50;;;5.27;61.86
61345;BME280;47216;42.656;23.232;2023-03-20T01:37:50;94151.31;;;5.22;62.34
61345;BME280;47216;42.656;23.232;2023-03-20T01:40:30;94144.75;;;5.19;62.25
61345;BME280;47216;42.656;23.232;2023-03-20T01:42:59;94151.53;;;5.20;62.37
61345;BME280;47216;42.656;23.232;2023-03-20T01:45:31;94160.25;;;5.26;61.96
61345;BME280;47216;42.656;23.232;2023-03-20T01:48:01;94163.44;;;5.28;62.79
61345;BME280;47216;42.656;23.232;2023-03-20T01:50:30;94163.00;;;5.31;62.71
61345;BME280;47216;42.656;23.232;2023-03-20T01:53:02;94167.78;;;5.34;62.40
61345;BME280;47216;42.656;23.232;2023-03-20T01:55:30;94165.78;;;5.36;61.99
61345;BME280;47216;42.656;23.232;2023-03-20T01:57:59;94164.56;;;5.39;62.27
61345;BME280;47216;42.656;23.232;2023-03-20T02:00:28;94160.97;;;5.40;61.78
61345;BME280;47216;42.656;23.232;2023-03-20T02:02:57;94168.75;;;5.33;61.61
61345;BME280;47216;42.656;23.232;2023-03-20T02:05:25;94157.53;;;5.14;62.75
61345;BME280;47216;42.656;23.232;2023-03-20T02:08:04;94150.81;;;5.00;62.81
61345;BME280;47216;42.656;23.232;2023-03-20T02:10:34;94150.03;;;5.06;63.01
61345;BME280;47216;42.656;23.232;2023-03-20T02:13:02;94154.19;;;5.00;62.66
61345;BME280;47216;42.656;23.232;2023-03-20T02:15:31;94145.66;;;5.00;63.56
61345;BME280;47216;42.656;23.232;2023-03-20T02:17:58;94153.59;;;4.98;63.11
61345;BME280;47216;42.656;23.232;2023-03-20T02:20:32;94157.19;;;4.97;63.08
61345;BME280;47216;42.656;23.232;2023-03-20T02:26:32;94151.63;;;5.00;62.80
61345;BME280;47216;42.656;23.232;2023-03-20T02:32:29;94156.19;;;4.98;63.08
61345;BME280;47216;42.656;23.232;2023-03-20T02:38:22;94151.41;;;5.09;62.56
61345;BME280;47216;42.656;23.232;2023-03-20T02:40:57;94155.56;;;5.03;63.30
61345;BME280;47216;42.656;23.232;2023-03-20T02:43:33;94161.94;;;5.00;63.07
61345;BME280;47216;42.656;23.232;2023-03-20T02:46:06;94155.59;;;4.96;62.88
61345;BME280;47216;42.656;23.232;2023-03-20T02:48:43;94150.69;;;4.88;62.74
61345;BME280;47216;42.656;23.232;2023-03-20T02:51:15;94150.09;;;4.86;63.53
61345;BME280;47216;42.656;23.232;2023-03-20T02:53:51;94150.91;;;4.73;63.37
61345;BME280;47216;42.656;23.232;2023-03-20T02:56:25;94150.34;;;4.65;63.94
61345;BME280;47216;42.656;23.232;2023-03-20T02:59:01;94149.16;;;4.60;63.53
61345;BME280;47216;42.656;23.232;2023-03-20T03:01:33;94147.78;;;4.51;64.73
61345;BME280;47216;42.656;23.232;2023-03-20T03:04:04;94155.16;;;4.41;64.14
61345;BME280;47216;42.656;23.232;2023-03-20T03:06:36;94151.78;;;4.27;65.34
61345;BME280;47216;42.656;23.232;2023-03-20T03:09:11;94143.69;;;4.24;65.56
61345;BME280;47216;42.656;23.232;2023-03-20T03:11:42;94147.03;;;4.17;65.22
61345;BME280;47216;42.656;23.232;2023-03-20T03:14:14;94149.44;;;4.26;66.13
61345;BME280;47216;42.656;23.232;2023-03-20T03:16:44;94143.44;;;4.25;65.38
61345;BME280;47216;42.656;23.232;2023-03-20T03:19:15;94143.50;;;4.18;65.76
61345;BME280;47216;42.656;23.232;2023-03-20T03:21:45;94145.47;;;4.23;65.43
61345;BME280;47216;42.656;23.232;2023-03-20T03:24:26;94136.72;;;4.24;65.67
61345;BME280;47216;42.656;23.232;2023-03-20T03:26:54;94141.88;;;4.17;66.20
61345;BME280;47216;42.656;23.232;2023-03-20T03:29:22;94142.47;;;4.19;65.44
61345;BME280;47216;42.656;23.232;2023-03-20T03:31:51;94143.69;;;4.24;65.33
61345;BME280;47216;42.656;23.232;2023-03-20T03:34:21;94145.66;;;4.21;65.29
61345;BME280;47216;42.656;23.232;2023-03-20T03:36:53;94147.03;;;4.24;65.49
61345;BME280;47216;42.656;23.232;2023-03-20T03:39:30;94152.59;;;4.28;65.16
61345;BME280;47216;42.656;23.232;2023-03-20T03:42:05;94148.84;;;4.10;66.21
61345;BME280;47216;42.656;23.232;2023-03-20T03:44:36;94152.00;;;4.12;65.58
61345;BME280;47216;42.656;23.232;2023-03-20T03:47:10;94141.50;;;4.07;65.88
61345;BME280;47216;42.656;23.232;2023-03-20T03:49:45;94149.63;;;4.04;65.85
61345;BME280;47216;42.656;23.232;2023-03-20T03:52:19;94144.88;;;4.01;65.90
61345;BME280;47216;42.656;23.232;2023-03-20T03:54:50;94131.38;;;4.06;66.71
61345;BME280;47216;42.656;23.232;2023-03-20T03:57:22;94121.88;;;3.93;66.31
61345;BME280;47216;42.656;23.232;2023-03-20T03:59:51;94127.81;;;3.87;67.05
61345;BME280;47216;42.656;23.232;2023-03-20T04:02:20;94126.44;;;3.91;66.63
61345;BME280;47216;42.656;23.232;2023-03-20T04:04:50;94131.59;;;3.91;67.37
61345;BME280;47216;42.656;23.232;2023-03-20T04:07:18;94120.25;;;3.85;66.19
61345;BME280;47216;42.656;23.232;2023-03-20T04:09:46;94107.19;;;3.87;66.59
61345;BME280;47216;42.656;23.232;2023-03-20T04:12:33;94126.41;;;4.04;66.47
61345;BME280;47216;42.656;23.232;2023-03-20T04:15:00;94124.03;;;4.16;66.30
61345;BME280;47216;42.656;23.232;2023-03-20T04:17:27;94120.25;;;4.18;65.99
61345;BME280;47216;42.656;23.232;2023-03-20T04:19:55;94120.03;;;4.13;66.05
61345;BME280;47216;42.656;23.232;2023-03-20T04:22:21;94110.97;;;3.91;66.03
61345;BME280;47216;42.656;23.232;2023-03-20T04:24:48;94115.31;;;3.84;67.17
61345;BME280;47216;42.656;23.232;2023-03-20T04:27:15;94103.41;;;3.83;67.56
61345;BME280;47216;42.656;23.232;2023-03-20T04:29:43;94107.38;;;3.92;67.28
61345;BME280;47216;42.656;23.232;2023-03-20T04:32:10;94108.16;;;3.86;66.57
61345;BME280;47216;42.656;23.232;2023-03-20T04:34:37;94110.97;;;3.91;66.54
61345;BME280;47216;42.656;23.232;2023-03-20T04:37:04;94114.13;;;3.86;67.01
61345;BME280;47216;42.656;23.232;2023-03-20T04:39:33;94125.66;;;3.84;67.23
61345;BME280;47216;42.656;23.232;2023-03-20T04:41:59;94145.88;;;3.87;66.53
61345;BME280;47216;42.656;23.232;2023-03-20T04:44:26;94148.66;;;3.92;67.53
61345;BME280;47216;42.656;23.232;2023-03-20T04:46:54;94144.69;;;3.89;67.82
61345;BME280;47216;42.656;23.232;2023-03-20T04:49:21;94155.59;;;3.85;67.88
61345;BME280;47216;42.656;23.232;2023-03-20T04:51:48;94163.72;;;3.82;66.78
61345;BME280;47216;42.656;23.232;2023-03-20T04:54:15;94160.16;;;3.83;67.15
61345;BME280;47216;42.656;23.232;2023-03-20T04:56:42;94171.66;;;3.87;67.46
61345;BME280;47216;42.656;23.232;2023-03-20T04:59:08;94163.72;;;3.82;68.06
61345;BME280;47216;42.656;23.232;2023-03-20T05:01:35;94163.31;;;3.78;68.04
61345;BME280;47216;42.656;23.232;2023-03-20T05:04:04;94148.25;;;3.82;68.57
61345;BME280;47216;42.656;23.232;2023-03-20T05:06:31;94158.00;;;3.93;68.12
61345;BME280;47216;42.656;23.232;2023-03-20T05:08:58;94159.75;;;3.99;68.59
61345;BME280;47216;42.656;23.232;2023-03-20T05:11:25;94144.88;;;4.14;67.27
61345;BME280;47216;42.656;23.232;2023-03-20T05:13:52;94157.19;;;3.99;67.91
61345;BME280;47216;42.656;23.232;2023-03-20T05:16:19;94160.53;;;3.99;67.76
61345;BME280;47216;42.656;23.232;2023-03-20T05:18:46;94167.31;;;4.07;67.76
61345;BME280;47216;42.656;23.232;2023-03-20T05:21:14;94160.53;;;4.33;67.37
61345;BME280;47216;42.656;23.232;2023-03-20T05:23:41;94173.63;;;4.38;66.99
61345;BME280;47216;42.656;23.232;2023-03-20T05:26:08;94163.28;;;4.51;67.55
61345;BME280;47216;42.656;23.232;2023-03-20T05:28:35;94171.19;;;4.70;67.37
61345;BME280;47216;42.656;23.232;2023-03-20T05:31:02;94162.81;;;4.88;66.82
61345;BME280;47216;42.656;23.232;2023-03-20T05:33:28;94163.97;;;4.92;66.08
61345;BME280;47216;42.656;23.232;2023-03-20T05:35:55;94163.16;;;4.98;66.57
61345;BME280;47216;42.656;23.232;2023-03-20T05:38:23;94159.16;;;5.09;65.39
61345;BME280;47216;42.656;23.232;2023-03-20T05:40:55;94158.28;;;5.21;66.14
61345;BME280;47216;42.656;23.232;2023-03-20T05:43:23;94161.03;;;5.26;66.13
61345;BME280;47216;42.656;23.232;2023-03-20T05:45:49;94166.94;;;5.40;65.38
61345;BME280;47216;42.656;23.232;2023-03-20T05:48:16;94170.03;;;5.56;65.33
61345;BME280;47216;42.656;23.232;2023-03-20T05:50:43;94162.22;;;5.69;65.00
61345;BME280;47216;42.656;23.232;2023-03-20T05:53:10;94167.84;;;5.84;64.60
61345;BME280;47216;42.656;23.232;2023-03-20T05:55:38;94166.38;;;6.02;63.98
61345;BME280;47216;42.656;23.232;2023-03-20T05:58:06;94174.84;;;6.16;63.35
61345;BME280;47216;42.656;23.232;2023-03-20T06:00:32;94166.59;;;6.25;63.07
61345;BME280;47216;42.656;23.232;2023-03-20T06:02:59;94157.28;;;6.43;62.66
61345;BME280;47216;42.656;23.232;2023-03-20T06:05:26;94159.19;;;6.54;62.39
61345;BME280;47216;42.656;23.232;2023-03-20T06:07:53;94149.69;;;6.66;62.64
61345;BME280;47216;42.656;23.232;2023-03-20T06:10:19;94149.53;;;6.80;62.07
61345;BME280;47216;42.656;23.232;2023-03-20T06:12:48;94154.56;;;6.93;61.59
61345;BME280;47216;42.656;23.232;2023-03-20T06:15:15;94159.97;;;7.10;62.06
61345;BME280;47216;42.656;23.232;2023-03-20T06:17:41;94148.34;;;7.31;61.22
61345;BME280;47216;42.656;23.232;2023-03-20T06:20:09;94161.69;;;7.46;60.55
61345;BME280;47216;42.656;23.232;2023-03-20T06:22:36;94160.38;;;7.55;60.98
61345;BME280;47216;42.656;23.232;2023-03-20T06:25:04;94160.09;;;7.64;60.24
61345;BME280;47216;42.656;23.232;2023-03-20T06:27:31;94153.13;;;7.76;60.37
61345;BME280;47216;42.656;23.232;2023-03-20T06:29:59;94152.22;;;7.82;59.96
61345;BME280;47216;42.656;23.232;2023-03-20T06:32:26;94164.44;;;7.82;60.50
61345;BME280;47216;42.656;23.232;2023-03-20T06:34:53;94168.28;;;7.91;59.73
61345;BME280;47216;42.656;23.232;2023-03-20T06:37:20;94163.56;;;7.99;59.18
61345;BME280;47216;42.656;23.232;2023-03-20T06:39:46;94169.44;;;8.07;59.79
61345;BME280;47216;42.656;23.232;2023-03-20T06:42:14;94174.19;;;8.10;59.43
61345;BME280;47216;42.656;23.232;2023-03-20T06:44:41;94172.84;;;8.19;59.66
61345;BME280;47216;42.656;23.232;2023-03-20T06:47:09;94173.41;;;8.21;58.82
61345;BME280;47216;42.656;23.232;2023-03-20T06:49:36;94162.69;;;8.29;58.99
61345;BME280;47216;42.656;23.232;2023-03-20T06:52:03;94160.94;;;8.41;58.11
61345;BME280;47216;42.656;23.232;2023-03-20T06:54:29;94163.19;;;8.50;57.81
61345;BME280;47216;42.656;23.232;2023-03-20T06:56:56;94161.81;;;8.59;57.90
61345;BME280;47216;42.656;23.232;2023-03-20T06:59:23;94150.53;;;8.65;57.42
61345;BME280;47216;42.656;23.232;2023-03-20T07:01:51;94151.75;;;8.74;57.07
61345;BME280;47216;42.656;23.232;2023-03-20T07:04:19;94153.00;;;8.83;56.79
61345;BME280;47216;42.656;23.232;2023-03-20T07:06:46;94152.09;;;8.90;58.22
61345;BME280;47216;42.656;23.232;2023-03-20T07:09:13;94145.03;;;9.02;56.57
61345;BME280;47216;42.656;23.232;2023-03-20T07:11:41;94143.56;;;9.06;57.03
61345;BME280;47216;42.656;23.232;2023-03-20T07:14:09;94143.66;;;9.11;57.99
61345;BME280;47216;42.656;23.232;2023-03-20T07:16:36;94138.66;;;9.21;56.67
61345;BME280;47216;42.656;23.232;2023-03-20T07:19:02;94141.91;;;9.29;56.79
61345;BME280;47216;42.656;23.232;2023-03-20T07:21:31;94141.38;;;9.27;57.34
61345;BME280;47216;42.656;23.232;2023-03-20T07:23:57;94145.03;;;9.42;56.07
61345;BME280;47216;42.656;23.232;2023-03-20T07:26:25;94146.38;;;9.45;55.97
61345;BME280;47216;42.656;23.232;2023-03-20T07:28:52;94146.47;;;9.50;55.88
61345;BME280;47216;42.656;23.232;2023-03-20T07:31:20;94151.00;;;9.55;55.56
61345;BME280;47216;42.656;23.232;2023-03-20T07:33:48;94152.97;;;9.64;55.55
61345;BME280;47216;42.656;23.232;2023-03-20T07:36:15;94146.84;;;9.71;55.54
61345;BME280;47216;42.656;23.232;2023-03-20T07:38:43;94152.84;;;9.71;55.51
61345;BME280;47216;42.656;23.232;2023-03-20T07:41:10;94149.13;;;9.84;55.18
61345;BME280;47216;42.656;23.232;2023-03-20T07:43:37;94149.47;;;9.87;55.80
61345;BME280;47216;42.656;23.232;2023-03-20T07:46:06;94145.13;;;9.93;55.64
61345;BME280;47216;42.656;23.232;2023-03-20T07:48:33;94155.38;;;10.00;55.95
61345;BME280;47216;42.656;23.232;2023-03-20T07:51:00;94161.09;;;10.14;55.39
61345;BME280;47216;42.656;23.232;2023-03-20T07:53:27;94153.53;;;10.12;55.44
61345;BME280;47216;42.656;23.232;2023-03-20T07:55:55;94153.75;;;10.10;55.75
61345;BME280;47216;42.656;23.232;2023-03-20T07:58:22;94150.34;;;10.27;55.03
61345;BME280;47216;42.656;23.232;2023-03-20T08:00:48;94153.69;;;10.39;54.34
61345;BME280;47216;42.656;23.232;2023-03-20T08:03:15;94154.09;;;10.48;53.79
61345;BME280;47216;42.656;23.232;2023-03-20T08:05:42;94149.41;;;10.50;54.78
61345;BME280;47216;42.656;23.232;2023-03-20T08:08:09;94148.63;;;10.49;53.14
61345;BME280;47216;42.656;23.232;2023-03-20T08:10:35;94135.97;;;10.58;53.26
61345;BME280;47216;42.656;23.232;2023-03-20T08:13:04;94146.38;;;10.75;52.09
61345;BME280;47216;42.656;23.232;2023-03-20T08:15:31;94143.78;;;10.75;53.26
61345;BME280;47216;42.656;23.232;2023-03-20T08:17:57;94139.97;;;10.83;52.88
61345;BME280;47216;42.656;23.232;2023-03-20T08:20:24;94149.81;;;10.98;52.58
61345;BME280;47216;42.656;23.232;2023-03-20T08:22:51;94144.09;;;11.01;52.54
61345;BME280;47216;42.656;23.232;2023-03-20T08:25:18;94145.38;;;11.20;52.27
61345;BME280;47216;42.656;23.232;2023-03-20T08:27:45;94154.34;;;11.29;52.21
61345;BME280;47216;42.656;23.232;2023-03-20T08:30:14;94157.63;;;11.42;52.06
61345;BME280;47216;42.656;23.232;2023-03-20T08:32:41;94152.97;;;11.44;51.50
61345;BME280;47216;42.656;23.232;2023-03-20T08:35:08;94151.22;;;11.54;51.80
61345;BME280;47216;42.656;23.232;2023-03-20T08:37:35;94155.22;;;11.62;51.26
61345;BME280;47216;42.656;23.232;2023-03-20T08:40:03;94156.31;;;11.66;51.14
61345;BME280;47216;42.656;23.232;2023-03-20T08:42:30;94158.97;;;11.71;51.36
61345;BME280;47216;42.656;23.232;2023-03-20T08:44:57;94140.50;;;11.78;51.45
61345;BME280;47216;42.656;23.232;2023-03-20T08:47:25;94148.91;;;11.85;51.85
61345;BME280;47216;42.656;23.232;2023-03-20T08:49:52;94146.75;;;11.77;51.36
61345;BME280;47216;42.656;23.232;2023-03-20T08:52:19;94145.97;;;12.04;51.06
61345;BME280;47216;42.656;23.232;2023-03-20T08:54:46;94143.63;;;12.02;51.13
61345;BME280;47216;42.656;23.232;2023-03-20T08:57:12;94147.34;;;12.11;50.84
61345;BME280;47216;42.656;23.232;2023-03-20T08:59:39;94141.75;;;12.30;50.41
61345;BME280;47216;42.656;23.232;2023-03-20T09:02:08;94145.28;;;12.51;49.51
61345;BME280;47216;42.656;23.232;2023-03-20T09:04:36;94142.34;;;12.42;50.23
61345;BME280;47216;42.656;23.232;2023-03-20T09:07:03;94144.50;;;12.50;49.79
61345;BME280;47216;42.656;23.232;2023-03-20T09:09:30;94144.50;;;12.50;49.35
61345;BME280;47216;42.656;23.232;2023-03-20T09:11:57;94134.09;;;12.60;49.34
61345;BME280;47216;42.656;23.232;2023-03-20T09:14:26;94134.63;;;12.57;50.03
61345;BME280;47216;42.656;23.232;2023-03-20T09:16:53;94129.00;;;12.81;49.70
61345;BME280;47216;42.656;23.232;2023-03-20T09:19:20;94127.69;;;12.83;48.96
61345;BME280;47216;42.656;23.232;2023-03-20T09:21:48;94127.50;;;12.95;48.80
61345;BME280;47216;42.656;23.232;2023-03-20T09:24:15;94122.25;;;12.95;49.82
61345;BME280;47216;42.656;23.232;2023-03-20T09:26:42;94112.41;;;13.23;49.01
61345;BME280;47216;42.656;23.232;2023-03-20T09:29:09;94115.88;;;13.29;48.97
61345;BME280;47216;42.656;23.232;2023-03-20T09:31:35;94111.97;;;13.41;48.11
61345;BME280;47216;42.656;23.232;2023-03-20T09:34:03;94112.25;;;13.45;47.60
61345;BME280;47216;42.656;23.232;2023-03-20T09:36:29;94103.63;;;13.55;47.94
61345;BME280;47216;42.656;23.232;2023-03-20T09:38:58;94099.47;;;13.64;47.99
61345;BME280;47216;42.656;23.232;2023-03-20T09:41:25;94101.59;;;13.77;47.80
61345;BME280;47216;42.656;23.232;2023-03-20T09:44:09;94095.03;;;13.85;47.04
61345;BME280;47216;42.656;23.232;2023-03-20T09:46:46;94091.09;;;13.93;46.97
61345;BME280;47216;42.656;23.232;2023-03-20T09:49:24;94082.97;;;14.10;46.73
61345;BME280;47216;42.656;23.232;2023-03-20T09:51:56;94079.03;;;14.12;47.37
61345;BME280;47216;42.656;23.232;2023-03-20T09:54:28;94068.53;;;14.27;47.32
61345;BME280;47216;42.656;23.232;2023-03-20T09:57:01;94063.00;;;14.44;46.37
61345;BME280;47216;42.656;23.232;2023-03-20T09:59:29;94055.91;;;14.45;45.95
61345;BME280;47216;42.656;23.232;2023-03-20T10:02:00;94057.50;;;14.56;45.32
61345;BME280;47216;42.656;23.232;2023-03-20T10:04:31;94049.09;;;14.54;45.58
61345;BME280;47216;42.656;23.232;2023-03-20T10:07:01;94047.22;;;14.70;45.56
61345;BME280;47216;42.656;23.232;2023-03-20T10:09:30;94046.41;;;14.75;45.50
61345;BME280;47216;42.656;23.232;2023-03-20T10:12:22;94040.56;;;14.93;45.30
61345;BME280;47216;42.656;23.232;2023-03-20T10:14:58;94035.28;;;14.98;45.12
61345;BME280;47216;42.656;23.232;2023-03-20T10:17:39;94035.75;;;15.10;45.02
61345;BME280;47216;42.656;23.232;2023-03-20T10:20:12;94038.84;;;15.23;44.27
61345;BME280;47216;42.656;23.232;2023-03-20T10:22:44;94041.41;;;15.33;44.59
61345;BME280;47216;42.656;23.232;2023-03-20T10:25:21;94034.25;;;15.44;43.94
61345;BME280;47216;42.656;23.232;2023-03-20T10:27:51;94031.16;;;15.31;45.43
61345;BME280;47216;42.656;23.232;2023-03-20T10:30:27;94004.59;;;15.38;44.41
61345;BME280;47216;42.656;23.232;2023-03-20T10:33:06;94022.34;;;15.57;44.87
61345;BME280;47216;42.656;23.232;2023-03-20T10:35:43;94023.84;;;15.68;44.11
61345;BME280;47216;42.656;23.232;2023-03-20T10:38:22;94019.09;;;15.75;43.62
61345;BME280;47216;42.656;23.232;2023-03-20T10:40:54;94022.47;;;15.81;43.62
61345;BME280;47216;42.656;23.232;2023-03-20T10:43:25;94014.69;;;16.00;43.18
61345;BME280;47216;42.656;23.232;2023-03-20T10:45:58;94001.47;;;16.05;42.60
61345;BME280;47216;42.656;23.232;2023-03-20T10:48:30;94007.31;;;16.02;42.72
61345;BME280;47216;42.656;23.232;2023-03-20T10:51:00;93996.72;;;16.07;43.26
61345;BME280;47216;42.656;23.232;2023-03-20T10:53:30;93990.97;;;16.29;41.75
61345;BME280;47216;42.656;23.232;2023-03-20T10:56:02;93990.09;;;16.38;42.45
61345;BME280;47216;42.656;23.232;2023-03-20T10:58:34;93985.16;;;16.56;42.50
61345;BME280;47216;42.656;23.232;2023-03-20T11:01:03;93988.53;;;16.62;42.22
61345;BME280;47216;42.656;23.232;2023-03-20T11:03:31;93987.72;;;16.61;42.71
61345;BME280;47216;42.656;23.232;2023-03-20T11:06:00;93982.75;;;16.84;42.38
61345;BME280;47216;42.656;23.232;2023-03-20T11:08:33;93978.00;;;16.86;42.28
61345;BME280;47216;42.656;23.232;2023-03-20T11:11:03;93967.88;;;16.93;41.98
61345;BME280;47216;42.656;23.232;2023-03-20T11:13:33;93971.38;;;17.07;42.66
61345;BME280;47216;42.656;23.232;2023-03-20T11:16:15;93964.91;;;17.18;42.30
61345;BME280;47216;42.656;23.232;2023-03-20T11:18:43;93963.06;;;17.38;40.67
61345;BME280;47216;42.656;23.232;2023-03-20T11:21:14;93957.19;;;17.41;40.92
61345;BME280;47216;42.656;23.232;2023-03-20T11:23:43;93949.97;;;17.47;40.80
61345;BME280;47216;42.656;23.232;2023-03-20T11:26:13;93955.56;;;17.45;40.00
61345;BME280;47216;42.656;23.232;2023-03-20T11:28:46;93948.69;;;17.63;39.54
61345;BME280;47216;42.656;23.232;2023-03-20T11:31:16;93944.59;;;17.71;39.94
61345;BME280;47216;42.656;23.232;2023-03-20T11:33:45;93937.47;;;17.71;39.07
61345;BME280;47216;42.656;23.232;2023-03-20T11:36:21;93931.75;;;17.83;40.62
61345;BME280;47216;42.656;23.232;2023-03-20T11:38:49;93932.00;;;18.00;40.34
61345;BME280;47216;42.656;23.232;2023-03-20T11:41:22;93929.06;;;18.30;39.37
61345;BME280;47216;42.656;23.232;2023-03-20T11:43:49;93929.28;;;18.33;38.17
61345;BME280;47216;42.656;23.232;2023-03-20T11:46:15;93920.75;;;18.36;37.44
61345;BME280;47216;42.656;23.232;2023-03-20T11:48:46;93917.06;;;18.37;38.90
61345;BME280;47216;42.656;23.232;2023-03-20T11:51:14;93913.44;;;18.33;38.29
61345;BME280;47216;42.656;23.232;2023-03-20T11:53:57;93900.13;;;18.38;37.74
61345;BME280;47216;42.656;23.232;2023-03-20T11:56:28;93912.66;;;18.46;38.13
61345;BME280;47216;42.656;23.232;2023-03-20T11:58:57;93899.13;;;18.48;38.09
61345;BME280;47216;42.656;23.232;2023-03-20T12:01:24;93902.47;;;18.54;37.90
61345;BME280;47216;42.656;23.232;2023-03-20T12:03:59;93900.69;;;18.63;37.54
61345;BME280;47216;42.656;23.232;2023-03-20T12:06:38;93887.50;;;18.77;37.17
61345;BME280;47216;42.656;23.232;2023-03-20T12:09:12;93886.00;;;18.84;36.94
61345;BME280;47216;42.656;23.232;2023-03-20T12:11:46;93880.97;;;18.97;37.14
61345;BME280;47216;42.656;23.232;2023-03-20T12:14:27;93878.28;;;19.10;36.48
61345;BME280;47216;42.656;23.232;2023-03-20T12:17:13;93872.22;;;19.10;36.62
61345;BME280;47216;42.656;23.232;2023-03-20T12:19:47;93865.00;;;19.24;35.25
61345;BME280;47216;42.656;23.232;2023-03-20T12:22:21;93867.66;;;19.24;36.95
61345;BME280;47216;42.656;23.232;2023-03-20T12:24:54;93867.28;;;19.40;35.48
61345;BME280;47216;42.656;23.232;2023-03-20T12:27:28;93875.47;;;19.29;36.48
61345;BME280;47216;42.656;23.232;2023-03-20T12:30:00;93867.16;;;19.45;34.84
61345;BME280;47216;42.656;23.232;2023-03-20T12:32:34;93867.50;;;19.52;35.51
61345;BME280;47216;42.656;23.232;2023-03-20T12:35:04;93870.97;;;19.61;36.00
61345;BME280;47216;42.656;23.232;2023-03-20T12:37:36;93858.56;;;19.62;34.86
61345;BME280;47216;42.656;23.232;2023-03-20T12:40:04;93856.84;;;19.66;35.05
61345;BME280;47216;42.656;23.232;2023-03-20T12:42:41;93852.59;;;19.79;35.09
61345;BME280;47216;42.656;23.232;2023-03-20T12:45:17;93847.03;;;19.89;34.64
61345;BME280;47216;42.656;23.232;2023-03-20T12:48:03;93841.75;;;19.98;34.37
61345;BME280;47216;42.656;23.232;2023-03-20T12:50:34;93832.91;;;20.02;34.17
61345;BME280;47216;42.656;23.232;2023-03-20T12:56:01;93829.53;;;20.28;33.49
61345;BME280;47216;42.656;23.232;2023-03-20T12:58:39;93829.25;;;20.29;34.24
61345;BME280;47216;42.656;23.232;2023-03-20T13:01:10;93825.66;;;20.25;33.43
61345;BME280;47216;42.656;23.232;2023-03-20T13:03:55;93820.84;;;20.36;32.96
61345;BME280;47216;42.656;23.232;2023-03-20T13:06:36;93821.97;;;20.52;32.45
61345;BME280;47216;42.656;23.232;2023-03-20T13:09:23;93820.28;;;20.56;33.44
61345;BME280;47216;42.656;23.232;2023-03-20T13:12:03;93814.38;;;20.60;31.54
61345;BME280;47216;42.656;23.232;2023-03-20T13:14:43;93808.25;;;20.50;31.87
61345;BME280;47216;42.656;23.232;2023-03-20T13:17:17;93809.69;;;20.56;31.83
61345;BME280;47216;42.656;23.232;2023-03-20T13:19:53;93808.44;;;20.63;32.21
61345;BME280;47216;42.656;23.232;2023-03-20T13:22:30;93806.72;;;20.58;32.01